Time;durP1;ratioP1;P1;durP2;ratioP2;P2;SDS_P1;SDS_P2;PMS_P1;PMS_P2;Temp;Humidity;BMP_temperature;BMP_pressure;BME280_temperature;BME280_humidity;BME280_pressure;Samples;Min_cycle;Max_cycle;Signal;HPM_P1;HPM_P2
2021/06/09 00:00:48;;;;;;;60.95;36.58;;;;;;;16.30;67.82;98841.75;5099334;27;20042;-77
2021/06/09 00:03:14;;;;;;;54.70;35.00;;;;;;;16.36;67.96;98840.19;5099092;27;20035;-77
2021/06/09 00:05:40;;;;;;;68.15;42.47;;;;;;;16.26;67.72;98827.75;5134286;27;20149;-76
2021/06/09 00:08:06;;;;;;;66.97;41.33;;;;;;;16.30;67.99;98832.81;5098844;27;20070;-77
2021/06/09 00:10:32;;;;;;;66.75;40.63;;;;;;;16.48;67.37;98833.44;5115968;27;20039;-76
2021/06/09 00:12:58;;;;;;;67.15;37.47;;;;;;;16.53;66.92;98820.28;5116047;27;20039;-76
2021/06/09 00:15:24;;;;;;;62.85;37.85;;;;;;;16.76;66.64;98833.88;5134179;27;20517;-76
2021/06/09 00:17:50;;;;;;;60.15;37.72;;;;;;;16.94;66.36;98833.63;5134062;27;20075;-76
2021/06/09 00:20:19;;;;;;;72.25;39.38;;;;;;;17.06;65.80;98832.22;5134065;27;20074;-76
2021/06/09 00:22:45;;;;;;;54.47;29.55;;;;;;;17.21;65.30;98841.25;5082854;27;20141;-76
2021/06/09 00:25:18;;;;;;;69.03;35.75;;;;;;;17.32;64.85;98841.88;5115748;28;20050;-76
2021/06/09 00:27:45;;;;;;;53.60;27.38;;;;;;;17.41;64.46;98830.00;5098791;27;20046;-76
2021/06/09 00:30:13;;;;;;;50.53;25.08;;;;;;;17.52;64.34;98839.53;5098682;27;20533;-77
2021/06/09 00:32:39;;;;;;;67.18;24.83;;;;;;;17.60;63.74;98834.94;5115701;27;20050;-76
2021/06/09 00:35:05;;;;;;;69.22;29.98;;;;;;;17.72;63.49;98838.06;5134105;27;20375;-76
2021/06/09 00:37:31;;;;;;;52.35;27.90;;;;;;;17.85;63.11;98834.78;5133923;27;20043;-76
2021/06/09 00:39:57;;;;;;;60.88;28.63;;;;;;;17.92;62.65;98830.31;5115860;27;20397;-76
2021/06/09 00:42:23;;;;;;;40.30;22.15;;;;;;;18.01;62.38;98842.72;5133773;27;20561;-76
2021/06/09 00:44:49;;;;;;;49.40;20.95;;;;;;;18.04;61.94;98831.56;5134070;27;20058;-77
2021/06/09 00:47:22;;;;;;;45.47;21.00;;;;;;;18.12;61.99;98845.00;5133546;28;20518;-77
2021/06/09 00:49:48;;;;;;;58.53;30.33;;;;;;;18.19;61.59;98839.69;5081799;28;20047;-76
2021/06/09 00:52:14;;;;;;;54.58;22.83;;;;;;;18.23;61.52;98838.31;5111827;28;20180;-76
2021/06/09 00:54:40;;;;;;;48.65;20.80;;;;;;;18.24;61.63;98831.03;5095377;28;20065;-78
2021/06/09 00:57:06;;;;;;;30.65;14.45;;;;;;;18.23;61.39;98832.06;5113281;28;20569;-76
2021/06/09 00:59:33;;;;;;;43.25;18.83;;;;;;;18.24;61.11;98836.44;5095102;28;20467;-77
2021/06/09 01:01:59;;;;;;;40.40;18.38;;;;;;;18.23;61.12;98829.34;5095144;28;20047;-77
2021/06/09 01:04:24;;;;;;;39.75;18.27;;;;;;;18.28;61.21;98827.78;5111524;28;20177;-76
2021/06/09 01:06:50;;;;;;;38.53;17.15;;;;;;;18.26;60.91;98829.00;5112176;28;20039;-76
2021/06/09 01:09:16;;;;;;;45.92;18.33;;;;;;;18.28;60.85;98832.34;5115193;28;20074;-77
2021/06/09 01:11:43;;;;;;;42.50;17.42;;;;;;;18.31;60.68;98834.69;5117480;28;20043;-77
2021/06/09 01:14:08;;;;;;;40.47;17.17;;;;;;;18.32;60.75;98833.69;5098806;28;20074;-77
2021/06/09 01:16:34;;;;;;;37.70;12.73;;;;;;;18.35;60.97;98833.28;5115756;28;20533;-76
2021/06/09 01:19:00;;;;;;;32.25;16.05;;;;;;;18.31;60.84;98835.50;5115568;28;20139;-77
2021/06/09 01:21:30;;;;;;;38.47;14.98;;;;;;;18.36;60.88;98821.47;5081797;28;20086;-77
2021/06/09 01:23:56;;;;;;;35.92;14.75;;;;;;;18.44;60.33;98821.38;5082050;28;20040;-77
2021/06/09 01:26:25;;;;;;;35.15;11.57;;;;;;;18.45;60.33;98826.56;5116794;28;20054;-77
2021/06/09 01:28:55;;;;;;;39.17;17.60;;;;;;;18.49;60.72;98829.75;5116838;28;20550;-76
2021/06/09 01:31:24;;;;;;;33.92;16.55;;;;;;;18.51;60.51;98822.31;5099176;28;20135;-76
2021/06/09 01:33:50;;;;;;;41.33;15.40;;;;;;;18.60;60.38;98825.75;5115392;28;20043;-76
2021/06/09 01:36:16;;;;;;;29.45;13.82;;;;;;;18.64;60.12;98830.59;5116779;28;20039;-77
2021/06/09 01:38:54;;;;;;;23.42;9.38;;;;;;;18.69;60.07;98830.88;5100818;28;20047;-76
2021/06/09 01:41:23;;;;;;;25.08;11.40;;;;;;;18.72;59.69;98823.44;5115353;28;20563;-76
2021/06/09 01:43:51;;;;;;;24.33;9.48;;;;;;;18.71;59.28;98819.91;5114901;28;20044;-77
2021/06/09 01:46:17;;;;;;;22.40;9.85;;;;;;;18.77;59.61;98821.00;5115482;28;20048;-78
2021/06/09 01:48:43;;;;;;;28.80;8.80;;;;;;;18.81;59.19;98817.75;5098696;28;20046;-78
2021/06/09 01:51:09;;;;;;;13.38;7.22;;;;;;;18.91;59.02;98817.44;5098297;28;20046;-76
2021/06/09 01:53:35;;;;;;;10.55;6.22;;;;;;;18.95;58.78;98818.75;5097983;28;20051;-77
2021/06/09 01:56:01;;;;;;;14.00;5.97;;;;;;;18.95;58.59;98812.47;5098144;28;20066;-76
2021/06/09 01:58:27;;;;;;;13.20;8.02;;;;;;;19.05;58.57;98813.88;5080991;28;20533;-77
2021/06/09 02:00:53;;;;;;;21.40;7.50;;;;;;;19.14;58.35;98818.16;5116246;28;20040;-77
2021/06/09 02:03:19;;;;;;;16.10;5.22;;;;;;;19.22;57.84;98824.47;5098262;28;20122;-77
2021/06/09 02:05:45;;;;;;;9.93;4.85;;;;;;;19.24;57.64;98825.13;5097874;28;20142;-77
2021/06/09 02:08:12;;;;;;;21.42;8.65;;;;;;;19.31;57.38;98831.47;5115878;28;20510;-77
2021/06/09 02:10:38;;;;;;;8.75;4.63;;;;;;;19.36;57.15;98815.47;5081041;28;20131;-77
2021/06/09 02:13:06;;;;;;;15.45;6.90;;;;;;;19.35;57.34;98819.22;5080968;28;20546;-77
2021/06/09 02:15:32;;;;;;;18.00;7.75;;;;;;;19.35;57.36;98805.66;5097691;28;20039;-76
2021/06/09 02:18:10;;;;;;;12.43;5.72;;;;;;;19.38;57.01;98813.41;5097622;28;20043;-77
2021/06/09 02:20:42;;;;;;;12.83;5.77;;;;;;;19.39;57.13;98806.97;5098748;28;20046;-77
2021/06/09 02:23:11;;;;;;;12.57;5.85;;;;;;;19.39;57.20;98806.97;5097635;28;20075;-77
2021/06/09 02:25:40;;;;;;;16.02;5.55;;;;;;;19.41;56.80;98807.63;5114366;28;20043;-76
2021/06/09 02:28:06;;;;;;;10.88;6.03;;;;;;;19.46;56.92;98810.59;5080814;28;20071;-77
2021/06/09 02:30:32;;;;;;;19.08;5.55;;;;;;;19.48;56.57;98805.78;5116016;28;20439;-77
2021/06/09 02:32:58;;;;;;;19.00;5.13;;;;;;;19.62;56.64;98812.22;5114395;28;20031;-76
2021/06/09 02:35:24;;;;;;;12.32;5.68;;;;;;;19.65;56.35;98818.09;5114190;28;20414;-77
2021/06/09 02:37:51;;;;;;;10.77;5.25;;;;;;;19.80;56.18;98822.63;5114145;28;20093;-76
2021/06/09 02:40:18;;;;;;;10.18;4.93;;;;;;;20.00;55.85;98830.94;5097064;28;20065;-76
2021/06/09 02:42:44;;;;;;;13.05;5.47;;;;;;;20.12;55.64;98816.66;5080526;28;20130;-77
2021/06/09 02:45:11;;;;;;;11.70;6.60;;;;;;;20.27;55.13;98829.25;5114825;28;20115;-76
2021/06/09 02:47:44;;;;;;;10.63;4.38;;;;;;;20.45;55.11;98832.31;5063851;28;20039;-77
2021/06/09 02:50:11;;;;;;;11.60;5.00;;;;;;;20.53;54.98;98832.19;5114233;28;20039;-77
2021/06/09 02:52:43;;;;;;;6.85;4.32;;;;;;;20.82;54.34;98833.81;5113815;28;20047;-77
2021/06/09 02:55:17;;;;;;;8.70;4.10;;;;;;;21.10;53.76;98839.19;5079817;28;20039;-77
2021/06/09 02:58:12;;;;;;;8.70;4.38;;;;;;;21.29;53.16;98844.91;5113480;28;20517;-76
2021/06/09 03:01:00;;;;;;;17.15;5.07;;;;;;;21.50;52.84;98852.09;5081872;28;20142;-75
2021/06/09 03:03:46;;;;;;;10.60;4.43;;;;;;;21.50;52.41;98847.50;5097799;28;20130;-77
2021/06/09 03:06:21;;;;;;;12.77;3.95;;;;;;;21.60;52.36;98835.41;5098355;28;20046;-76
2021/06/09 03:09:02;;;;;;;9.38;3.97;;;;;;;21.67;52.36;98841.69;5114659;28;20040;-77
2021/06/09 03:11:42;;;;;;;10.65;4.15;;;;;;;21.81;52.13;98843.38;5116873;28;20074;-77
2021/06/09 03:16:50;;;;;;;17.42;4.32;;;;;;;22.09;51.76;98850.53;5100373;28;20048;-74
2021/06/09 03:19:26;;;;;;;8.65;4.30;;;;;;;22.22;51.23;98839.66;5098829;28;20051;-76
2021/06/09 03:21:57;;;;;;;10.77;4.28;;;;;;;22.24;51.20;98848.47;5082173;28;20051;-77
2021/06/09 03:24:32;;;;;;;6.28;3.88;;;;;;;22.09;50.73;98845.91;5098257;28;20042;-77
2021/06/09 03:27:01;;;;;;;12.75;4.75;;;;;;;21.90;51.32;98852.19;5082159;28;20043;-77
2021/06/09 03:29:48;;;;;;;14.32;4.43;;;;;;;21.76;51.64;98857.59;5099105;28;20035;-76
2021/06/09 03:32:28;;;;;;;17.40;4.35;;;;;;;21.82;51.73;98858.66;5116391;28;20161;-74
2021/06/09 03:35:02;;;;;;;6.88;4.18;;;;;;;21.82;51.80;98850.50;5097218;28;20043;-76
2021/06/09 03:37:31;;;;;;;15.35;4.20;;;;;;;21.89;51.84;98854.06;5096843;28;20031;-75
2021/06/09 03:39:58;;;;;;;16.40;4.20;;;;;;;22.01;51.78;98860.56;5063555;28;20071;-76
2021/06/09 03:42:27;;;;;;;11.50;4.35;;;;;;;22.14;51.78;98865.19;5115027;28;20176;-77
2021/06/09 03:44:53;;;;;;;23.60;5.35;;;;;;;22.30;51.09;98858.50;5113407;28;20502;-77
2021/06/09 03:47:19;;;;;;;14.85;4.80;;;;;;;22.48;50.93;98868.75;5096644;28;20100;-76
2021/06/09 03:49:47;;;;;;;14.50;4.45;;;;;;;22.66;50.63;98868.09;5113245;28;20071;-75
2021/06/09 03:52:13;;;;;;;6.72;4.20;;;;;;;22.85;50.55;98867.22;5079141;28;20154;-77
2021/06/09 03:54:41;;;;;;;29.15;4.63;;;;;;;23.05;50.18;98871.81;5096079;28;20048;-75
2021/06/09 03:57:07;;;;;;;20.13;9.82;;;;;;;23.14;49.83;98865.91;5096036;28;20130;-75
2021/06/09 03:59:34;;;;;;;17.15;4.70;;;;;;;23.31;49.12;98858.06;5079959;28;20109;-77
2021/06/09 04:02:00;;;;;;;8.45;4.07;;;;;;;23.39;49.03;98852.34;5078660;28;20046;-75
2021/06/09 04:04:28;;;;;;;8.85;4.50;;;;;;;23.54;49.05;98862.16;5079051;28;20482;-75
2021/06/09 04:06:55;;;;;;;6.15;3.83;;;;;;;23.51;48.15;98855.25;5095659;28;20054;-76
2021/06/09 04:09:22;;;;;;;12.77;3.83;;;;;;;23.38;48.27;98858.88;5078835;28;20134;-74
2021/06/09 04:11:54;;;;;;;10.30;3.90;;;;;;;23.40;48.58;98859.50;5112377;28;20545;-74
2021/06/09 04:14:22;;;;;;;5.63;3.50;;;;;;;23.47;48.12;98854.03;5112732;28;20040;-75
2021/06/09 04:16:48;;;;;;;15.02;5.10;;;;;;;23.50;48.10;98859.84;5079192;28;20079;-78
2021/06/09 04:19:15;;;;;;;16.90;6.57;;;;;;;23.65;48.26;98845.91;5112924;28;20058;-78
2021/06/09 04:21:41;;;;;;;10.55;3.63;;;;;;;23.72;47.37;98857.66;5079030;28;20050;-74
2021/06/09 04:24:07;;;;;;;13.00;3.72;;;;;;;23.85;47.06;98850.47;5113487;28;20044;-74
2021/06/09 04:26:33;;;;;;;13.10;3.80;;;;;;;23.82;46.73;98851.75;5113496;28;20047;-75
2021/06/09 04:28:59;;;;;;;5.72;3.90;;;;;;;23.76;47.12;98847.16;5095619;28;20051;-74
2021/06/09 04:31:25;;;;;;;9.68;3.75;;;;;;;23.73;47.73;98850.31;5095776;28;20413;-74
2021/06/09 04:33:57;;;;;;;12.30;4.57;;;;;;;23.87;47.44;98843.72;5095314;28;20047;-74
2021/06/09 04:36:23;;;;;;;13.18;3.70;;;;;;;23.95;46.88;98840.72;5095404;28;20067;-73
2021/06/09 04:38:49;;;;;;;8.52;3.42;;;;;;;23.98;46.94;98843.00;5106278;28;20089;-75
2021/06/09 04:41:15;;;;;;;12.35;3.92;;;;;;;24.12;46.85;98840.19;5078333;28;20067;-77
2021/06/09 04:43:41;;;;;;;10.38;3.55;;;;;;;24.24;46.90;98849.31;5061558;28;20039;-78
2021/06/09 04:46:07;;;;;;;9.32;3.45;;;;;;;24.39;46.58;98847.09;5076339;28;20101;-75
2021/06/09 04:48:33;;;;;;;12.65;4.75;;;;;;;24.39;46.65;98841.66;5091473;28;20506;-76
2021/06/09 04:50:59;;;;;;;10.43;3.67;;;;;;;24.51;46.31;98844.47;5075176;28;20044;-74
2021/06/09 04:53:25;;;;;;;15.40;3.92;;;;;;;24.68;46.17;98851.03;5091444;28;20066;-78
2021/06/09 04:55:53;;;;;;;13.02;3.72;;;;;;;24.79;46.07;98841.25;5075063;28;20040;-78
2021/06/09 04:58:20;;;;;;;8.82;3.15;;;;;;;24.89;45.52;98836.06;5058438;28;20100;-79
2021/06/09 05:00:47;;;;;;;8.98;3.25;;;;;;;25.00;45.08;98842.69;5075144;28;20043;-75
2021/06/09 05:03:13;;;;;;;5.53;3.67;;;;;;;25.07;45.24;98839.88;5092904;28;20044;-76
2021/06/09 05:05:39;;;;;;;6.30;3.72;;;;;;;25.17;44.79;98842.94;5085718;28;20050;-76
2021/06/09 05:08:05;;;;;;;6.75;3.50;;;;;;;25.01;44.31;98848.97;5091461;28;20048;-74
2021/06/09 05:10:33;;;;;;;13.85;3.70;;;;;;;25.05;44.96;98852.94;5095241;28;20036;-74
2021/06/09 05:13:16;;;;;;;12.18;4.28;;;;;;;25.11;44.68;98861.09;5094976;28;20135;-73
2021/06/09 05:15:49;;;;;;;8.85;4.05;;;;;;;24.73;44.72;98855.81;5094874;28;20039;-74
2021/06/09 05:18:26;;;;;;;13.27;3.90;;;;;;;24.58;45.12;98856.19;5111467;28;20112;-75
2021/06/09 05:20:52;;;;;;;13.80;3.70;;;;;;;24.08;45.96;98853.44;5112709;28;20498;-76
2021/06/09 05:23:26;;;;;;;10.35;3.58;;;;;;;23.81;45.91;98858.25;5061780;28;20521;-77
2021/06/09 05:25:53;;;;;;;7.07;3.60;;;;;;;23.86;46.51;98857.59;5078651;28;20039;-76
2021/06/09 05:28:20;;;;;;;6.88;3.35;;;;;;;23.75;46.73;98864.59;5078217;28;20043;-79
2021/06/09 05:30:46;;;;;;;6.15;3.17;;;;;;;23.88;46.34;98861.78;5094521;28;20048;-76
2021/06/09 05:33:12;;;;;;;4.78;2.90;;;;;;;24.15;46.06;98856.13;5094655;28;20075;-75
2021/06/09 05:35:37;;;;;;;10.55;3.47;;;;;;;24.61;45.25;98860.38;5094753;28;20040;-77
2021/06/09 05:38:04;;;;;;;10.93;3.72;;;;;;;25.19;45.15;98854.47;5111629;28;20040;-75
2021/06/09 05:40:30;;;;;;;6.05;3.38;;;;;;;25.79;43.60;98862.75;5112040;28;20130;-78
2021/06/09 05:42:55;;;;;;;5.93;3.78;;;;;;;25.43;43.38;98861.75;5111809;28;20126;-78
2021/06/09 05:45:32;;;;;;;8.10;3.40;;;;;;;25.52;43.46;98850.50;5094838;28;20071;-76
2021/06/09 05:47:58;;;;;;;7.75;3.40;;;;;;;25.90;43.67;98859.22;5095002;28;20418;-86
2021/06/09 05:50:26;;;;;;;12.45;4.00;;;;;;;26.42;42.89;98850.38;5078526;28;20052;-81
2021/06/09 05:52:59;;;;;;;9.73;3.35;;;;;;;26.65;41.83;98866.03;5078298;28;20509;-76
2021/06/09 05:55:28;;;;;;;6.75;3.33;;;;;;;26.87;41.94;98858.84;5114567;28;20126;-77
2021/06/09 05:57:55;;;;;;;11.32;4.20;;;;;;;27.11;41.23;98853.34;5081148;28;20047;-76
2021/06/09 06:00:23;;;;;;;10.55;3.22;;;;;;;27.27;40.88;98852.63;5098043;28;20047;-75
2021/06/09 06:02:50;;;;;;;13.07;3.67;;;;;;;27.09;41.11;98860.97;5098512;28;20509;-74
2021/06/09 06:05:16;;;;;;;20.88;4.50;;;;;;;27.07;41.16;98863.13;5114985;28;20383;-76
2021/06/09 06:07:42;;;;;;;4.80;3.47;;;;;;;27.02;41.42;98861.09;5116113;28;20042;-74
2021/06/09 06:10:08;;;;;;;4.75;3.58;;;;;;;26.93;41.43;98856.22;5113180;28;20044;-74
2021/06/09 06:12:35;;;;;;;16.05;3.70;;;;;;;26.71;42.27;98858.75;5059272;28;20040;-77
2021/06/09 06:15:01;;;;;;;5.63;3.20;;;;;;;26.66;41.27;98853.97;5093167;28;20044;-77
2021/06/09 06:17:27;;;;;;;4.28;3.03;;;;;;;26.61;41.58;98862.91;5091588;28;20051;-78
2021/06/09 06:19:53;;;;;;;7.63;3.47;;;;;;;26.68;41.64;98865.56;5074560;28;20210;-76
2021/06/09 06:22:19;;;;;;;10.18;3.30;;;;;;;26.61;41.69;98859.34;5091208;28;20052;-76
2021/06/09 06:24:48;;;;;;;8.00;2.95;;;;;;;26.40;41.98;98856.09;5092628;28;20055;-78
2021/06/09 06:27:14;;;;;;;6.72;3.42;;;;;;;26.29;42.71;98859.66;5057806;28;20047;-78
2021/06/09 06:29:41;;;;;;;9.82;3.10;;;;;;;25.80;43.33;98864.44;5059036;28;20047;-78
2021/06/09 06:32:08;;;;;;;8.93;3.28;;;;;;;26.07;43.19;98861.31;5076895;28;20075;-76
2021/06/09 06:34:35;;;;;;;5.75;3.53;;;;;;;26.24;43.14;98854.06;5077559;28;20044;-75
2021/06/09 06:37:01;;;;;;;10.38;3.10;;;;;;;26.33;42.94;98862.78;5077465;28;20446;-75
2021/06/09 06:39:27;;;;;;;9.05;3.03;;;;;;;26.46;43.00;98869.97;5077145;28;20036;-74
2021/06/09 06:41:53;;;;;;;9.27;3.30;;;;;;;26.32;42.96;98856.44;5094022;28;20178;-76
2021/06/09 06:44:19;;;;;;;5.57;3.15;;;;;;;26.37;42.48;98864.81;5077673;28;20051;-76
2021/06/09 06:46:49;;;;;;;6.57;2.80;;;;;;;26.33;42.71;98858.13;5093579;28;20457;-76
2021/06/09 06:49:18;;;;;;;6.50;2.88;;;;;;;25.83;43.17;98858.47;5093992;28;20048;-76
2021/06/09 06:51:45;;;;;;;5.95;3.10;;;;;;;25.64;43.53;98859.56;5060162;28;20136;-76
2021/06/09 06:54:11;;;;;;;9.68;3.20;;;;;;;25.92;43.52;98862.56;5043541;28;20067;-77
2021/06/09 06:56:37;;;;;;;10.57;2.95;;;;;;;26.07;43.30;98855.81;5094067;28;20086;-76
2021/06/09 06:59:03;;;;;;;7.55;3.25;;;;;;;25.96;43.43;98864.84;5060453;28;20058;-75
2021/06/09 07:01:31;;;;;;;10.38;3.45;;;;;;;25.86;43.67;98858.00;5076477;28;20047;-74
2021/06/09 07:03:57;;;;;;;4.53;3.10;;;;;;;25.90;43.83;98856.47;5076428;28;20106;-75
2021/06/09 07:06:23;;;;;;;5.15;2.92;;;;;;;26.27;43.55;98859.06;5092295;28;20587;-76
2021/06/09 07:08:49;;;;;;;7.78;3.10;;;;;;;26.59;42.38;98853.25;5076251;28;20047;-75
2021/06/09 07:11:15;;;;;;;3.10;2.90;;;;;;;26.73;41.73;98856.59;5093318;28;20059;-75
2021/06/09 07:13:41;;;;;;;3.67;2.50;;;;;;;27.02;41.58;98860.28;5076355;28;20072;-75
2021/06/09 07:16:10;;;;;;;10.00;3.08;;;;;;;27.12;40.62;98846.81;5092940;28;20040;-76
2021/06/09 07:18:41;;;;;;;4.38;2.47;;;;;;;26.99;40.31;98856.09;5094230;28;20384;-76
2021/06/09 07:21:08;;;;;;;4.85;2.78;;;;;;;27.18;40.32;98851.31;5093201;28;20052;-76
2021/06/09 07:23:34;;;;;;;6.53;2.72;;;;;;;27.22;40.65;98844.25;5076231;28;20063;-75
2021/06/09 07:26:01;;;;;;;7.95;2.90;;;;;;;26.96;41.59;98853.00;5094470;28;20489;-74
2021/06/09 07:28:27;;;;;;;8.88;2.97;;;;;;;26.90;42.06;98840.25;5076048;28;20064;-76
2021/06/09 07:30:54;;;;;;;7.47;3.10;;;;;;;26.96;41.85;98839.28;5042849;28;20047;-76
2021/06/09 07:33:20;;;;;;;10.25;3.15;;;;;;;26.85;41.40;98830.84;5059461;28;20542;-75
2021/06/09 07:35:45;;;;;;;10.90;3.30;;;;;;;27.26;41.78;98845.44;5094080;28;20035;-76
2021/06/09 07:38:18;;;;;;;13.05;3.50;;;;;;;27.40;41.15;98845.16;5093651;28;20510;-75
2021/06/09 07:40:44;;;;;;;5.97;2.97;;;;;;;27.67;41.42;98846.25;5093406;28;20524;-76
2021/06/09 07:43:12;;;;;;;10.15;2.95;;;;;;;27.95;40.24;98841.84;5094058;28;20118;-76
2021/06/09 07:45:38;;;;;;;7.43;3.33;;;;;;;27.66;39.92;98846.50;5092851;28;20051;-76
2021/06/09 07:48:04;;;;;;;4.05;2.90;;;;;;;27.76;40.37;98844.81;5075752;28;20395;-76
2021/06/09 07:50:41;;;;;;;3.70;2.60;;;;;;;27.83;39.88;98840.00;5058962;28;20514;-75
2021/06/09 07:53:10;;;;;;;3.72;2.97;;;;;;;28.06;40.24;98843.69;5076260;28;20056;-76
2021/06/09 07:55:36;;;;;;;;;;;;;;;27.74;39.93;98841.47;5092919;28;20130;-76
2021/06/09 07:58:05;;;;;;;6.47;3.08;;;;;;;27.59;40.55;98841.16;5092195;28;19920;-76
2021/06/09 08:00:32;;;;;;;4.03;2.88;;;;;;;28.08;40.64;98849.75;5075478;28;20130;-74
2021/06/09 08:02:58;;;;;;;3.67;2.97;;;;;;;28.48;39.42;98840.56;5093315;28;20464;-77
2021/06/09 08:05:24;;;;;;;2.67;2.47;;;;;;;28.58;38.84;98837.94;5075336;28;20044;-75
2021/06/09 08:07:51;;;;;;;4.72;2.92;;;;;;;28.52;38.15;98836.22;5075259;28;20048;-77
2021/06/09 08:10:17;;;;;;;5.38;2.45;;;;;;;28.41;38.93;98834.38;5092233;28;20055;-76
2021/06/09 08:12:43;;;;;;;7.97;2.67;;;;;;;28.73;38.08;98846.41;5075470;28;20131;-76
2021/06/09 08:15:11;;;;;;;7.03;2.50;;;;;;;28.63;36.90;98838.03;5093595;28;20398;-76
2021/06/09 08:17:39;;;;;;;6.28;2.60;;;;;;;28.71;36.85;98848.59;5075075;28;20067;-76
2021/06/09 08:20:07;;;;;;;5.57;2.63;;;;;;;28.54;37.19;98851.34;5092214;28;20078;-76
2021/06/09 08:22:34;;;;;;;6.20;2.22;;;;;;;28.78;35.76;98840.16;5092281;28;20042;-76
2021/06/09 08:25:00;;;;;;;8.05;2.25;;;;;;;28.62;36.20;98846.50;5075409;28;20044;-77
2021/06/09 08:27:26;;;;;;;7.50;2.40;;;;;;;28.78;37.01;98841.00;5093000;28;20047;-77
2021/06/09 08:29:52;;;;;;;13.48;2.60;;;;;;;28.91;36.26;98838.97;5092057;28;20097;-76
2021/06/09 08:32:17;;;;;;;5.30;2.60;;;;;;;29.21;36.43;98850.41;5092227;28;20048;-77
2021/06/09 08:34:43;;;;;;;6.25;2.85;;;;;;;29.46;35.57;98838.03;5093158;28;20043;-76
2021/06/09 08:37:09;;;;;;;7.18;2.60;;;;;;;29.81;35.74;98847.78;5093005;28;20043;-76
2021/06/09 08:39:35;;;;;;;6.90;2.30;;;;;;;29.96;36.02;98853.44;5093148;28;20044;-75
2021/06/09 08:42:02;;;;;;;4.53;2.45;;;;;;;30.16;35.26;98839.00;5093160;28;20510;-75
2021/06/09 08:44:28;;;;;;;6.30;2.20;;;;;;;30.26;34.74;98852.09;5091597;28;20044;-75
2021/06/09 08:46:57;;;;;;;12.45;2.40;;;;;;;30.21;34.50;98839.09;5092706;28;20515;-75
2021/06/09 08:49:23;;;;;;;4.65;2.05;;;;;;;30.18;32.67;98854.25;5059360;28;20044;-77
2021/06/09 08:51:49;;;;;;;5.00;2.30;;;;;;;30.27;32.69;98851.00;5075113;28;20051;-76
2021/06/09 08:54:15;;;;;;;8.32;2.30;;;;;;;30.36;31.28;98850.25;5091209;28;20087;-75
2021/06/09 08:56:42;;;;;;;5.95;2.10;;;;;;;30.46;30.58;98843.97;5075068;28;20403;-76
2021/06/09 08:59:07;;;;;;;4.25;2.05;;;;;;;30.37;30.05;98840.88;5092765;28;20048;-76
2021/06/09 09:01:34;;;;;;;5.63;2.25;;;;;;;30.20;30.88;98841.03;5092860;28;20066;-76
2021/06/09 09:04:00;;;;;;;3.28;2.10;;;;;;;30.33;31.33;98828.72;5092835;28;20097;-76
2021/06/09 09:06:26;;;;;;;9.38;2.30;;;;;;;30.27;31.65;98840.78;5092809;28;20127;-75
2021/06/09 09:08:53;;;;;;;7.70;3.15;;;;;;;30.37;32.02;98840.88;5092970;28;20127;-77
2021/06/09 09:11:20;;;;;;;7.80;2.55;;;;;;;30.56;31.70;98840.47;5091543;28;20094;-78
2021/06/09 09:13:46;;;;;;;7.10;2.10;;;;;;;30.91;31.91;98840.69;5074742;28;20043;-78
2021/06/09 09:16:12;;;;;;;6.30;2.22;;;;;;;31.25;31.26;98845.00;5074835;28;20051;-77
2021/06/09 09:21:40;;;;;;;12.23;2.75;;;;;;;31.61;31.58;98827.47;5091448;28;20052;-77
2021/06/09 09:24:09;;;;;;;4.53;2.25;;;;;;;31.72;32.03;98841.31;5074595;28;20503;-79
2021/06/09 09:26:35;;;;;;;5.13;2.00;;;;;;;31.68;32.08;98841.88;5091336;28;20578;-78
2021/06/09 09:29:17;;;;;;;6.93;2.30;;;;;;;31.98;31.90;98832.00;5092223;28;20051;-78
2021/06/09 09:32:00;;;;;;;3.70;2.22;;;;;;;31.53;30.30;98833.53;5095397;28;20121;-77
2021/06/09 09:34:33;;;;;;;5.68;2.20;;;;;;;31.38;31.87;98833.50;5078791;28;20051;-77
2021/06/09 09:37:09;;;;;;;7.88;2.20;;;;;;;31.48;31.67;98833.50;5078699;28;20138;-77
2021/06/09 09:39:36;;;;;;;7.70;2.00;;;;;;;31.68;31.69;98841.03;5096793;28;20502;-78
2021/06/09 09:42:43;;;;;;;6.40;2.10;;;;;;;32.17;30.89;98830.34;5078242;28;20422;-77
2021/06/09 09:45:13;;;;;;;4.78;2.05;;;;;;;32.32;30.80;98818.44;5091054;28;20054;-76
2021/06/09 09:47:39;;;;;;;4.55;2.00;;;;;;;32.71;29.88;98811.50;5078014;28;20097;-77
2021/06/09 09:50:05;;;;;;;10.15;2.40;;;;;;;33.13;29.81;98811.91;5078171;28;20048;-77
2021/06/09 09:52:48;;;;;;;4.47;2.00;;;;;;;33.18;28.95;98815.81;5100412;28;20052;-77
2021/06/09 09:55:14;;;;;;;4.13;1.85;;;;;;;33.40;29.33;98804.31;5081445;28;20127;-76
2021/06/09 09:57:40;;;;;;;6.93;2.00;;;;;;;33.76;28.93;98811.34;5116346;28;20107;-77
2021/06/09 10:00:07;;;;;;;2.60;1.88;;;;;;;33.89;28.69;98817.34;5116907;28;20126;-76
2021/06/09 10:02:34;;;;;;;11.32;2.10;;;;;;;34.04;28.12;98801.47;5098636;28;20063;-77
2021/06/09 10:05:11;;;;;;;6.15;2.17;;;;;;;33.97;28.04;98812.03;5116130;28;20495;-76
2021/06/09 10:07:37;;;;;;;7.72;2.10;;;;;;;34.13;27.96;98803.63;5116612;28;20374;-77
2021/06/09 10:10:05;;;;;;;2.42;1.80;;;;;;;34.42;28.07;98800.88;5080880;28;20134;-76
2021/06/09 10:12:31;;;;;;;;;;;;;;;34.86;26.80;98800.69;5100146;27;20518;-79
2021/06/09 10:14:58;;;;;;;9.95;1.90;;;;;;;35.22;26.91;98798.31;5080827;28;19920;-79
2021/06/09 10:17:28;;;;;;;7.15;2.20;;;;;;;35.35;25.96;98799.53;5131886;27;20043;-79
2021/06/09 10:19:58;;;;;;;5.53;2.10;;;;;;;35.74;26.08;98798.47;5064868;28;20122;-78
2021/06/09 10:22:37;;;;;;;29.73;4.18;;;;;;;35.52;25.96;98793.50;5070988;27;20047;-78
2021/06/09 10:25:07;;;;;;;1.70;1.60;;;;;;;35.49;25.82;98794.91;5102606;27;20087;-77
2021/06/09 10:27:39;;;;;;;4.47;2.10;;;;;;;34.84;26.29;98789.06;5136256;27;20075;-77
2021/06/09 10:30:21;;;;;;;6.40;1.95;;;;;;;35.22;26.47;98784.44;5101204;27;20070;-83
2021/06/09 10:32:50;;;;;;;7.22;2.08;;;;;;;35.96;25.83;98781.97;5118173;27;20520;-84
2021/06/09 10:35:21;;;;;;;8.82;2.03;;;;;;;36.55;25.29;98778.78;5085422;27;20074;-81
2021/06/09 10:37:47;;;;;;;8.10;2.05;;;;;;;36.84;24.29;98776.53;5069751;27;20043;-83
2021/06/09 10:40:22;;;;;;;10.40;2.10;;;;;;;37.11;23.34;98786.03;5138002;27;20047;-84
2021/06/09 10:42:49;;;;;;;4.78;1.75;;;;;;;36.93;22.92;98779.41;5106695;27;20047;-84
2021/06/09 10:45:18;;;;;;;7.63;2.10;;;;;;;36.72;23.22;98774.25;5112255;27;20043;-82
2021/06/09 10:47:45;;;;;;;5.65;1.80;;;;;;;36.44;23.82;98778.09;5107048;27;20043;-86
2021/06/09 10:50:11;;;;;;;7.45;1.80;;;;;;;35.98;24.28;98774.16;5136488;27;20064;-80
2021/06/09 10:52:38;;;;;;;4.95;1.90;;;;;;;36.22;23.35;98764.84;5114103;28;20100;-83
2021/06/09 10:55:06;;;;;;;6.78;2.00;;;;;;;36.30;23.40;98761.41;5114159;28;20523;-83
2021/06/09 10:57:32;;;;;;;;;;;;;;;36.22;23.68;98771.28;5097835;28;20104;-87
2021/06/09 10:59:58;;;;;;;7.85;1.92;;;;;;;36.64;23.90;98761.06;5063231;28;19920;-79
2021/06/09 11:02:24;;;;;;;8.52;1.95;;;;;;;36.89;23.46;98756.09;5090480;28;20461;-80
2021/06/09 11:04:54;;;;;;;5.68;1.80;;;;;;;37.60;22.47;98764.91;5093504;28;20092;-78
2021/06/09 11:07:40;;;;;;;5.50;1.88;;;;;;;38.11;21.81;98772.06;5063394;28;20044;-79
2021/06/09 11:10:08;;;;;;;11.10;1.90;;;;;;;38.59;21.50;98762.97;5079821;28;20047;-78
2021/06/09 11:12:45;;;;;;;5.70;2.00;;;;;;;38.96;20.61;98772.84;5079889;28;20143;-79
2021/06/09 11:15:16;;;;;;;4.78;1.65;;;;;;;38.97;20.76;98773.66;5080839;28;20481;-82
2021/06/09 11:17:48;;;;;;;3.70;1.60;;;;;;;38.63;21.39;98769.59;5080837;28;20043;-78
2021/06/09 11:20:37;;;;;;;3.10;2.15;;;;;;;39.24;20.67;98762.25;5096437;28;20046;-78
2021/06/09 11:23:12;;;;;;;2.67;2.00;;;;;;;39.73;19.85;98774.16;5114865;28;20522;-78
2021/06/09 11:25:46;;;;;;;5.18;1.90;;;;;;;40.08;19.68;98774.13;5107906;28;20040;-78
2021/06/09 11:28:13;;;;;;;3.55;1.55;;;;;;;40.00;19.64;98780.56;5076758;28;20126;-79
2021/06/09 11:30:43;;;;;;;5.50;1.90;;;;;;;40.06;19.90;98770.84;5076916;28;20135;-80
2021/06/09 11:33:11;;;;;;;3.33;1.67;;;;;;;39.87;19.92;98773.16;5059716;28;20047;-79
2021/06/09 11:35:44;;;;;;;7.72;1.52;;;;;;;40.42;18.98;98775.22;5059381;28;20048;-79
2021/06/09 11:38:13;;;;;;;10.40;1.92;;;;;;;40.35;18.89;98766.53;5044461;28;20050;-78
2021/06/09 11:40:59;;;;;;;4.60;1.60;;;;;;;40.55;19.00;98771.41;5076429;28;20078;-80